Time;durP1;ratioP1;P1;durP2;ratioP2;P2;SDS_P1;SDS_P2;PMS_P1;PMS_P2;Temp;Humidity;BMP_temperature;BMP_pressure;BME280_temperature;BME280_humidity;BME280_pressure;Samples;Min_cycle;Max_cycle;Signal;HPM_P1;HPM_P2
2022/08/22 00:00:26;;;;;;;6.43;2.97;;;;;;;19.59;63.49;101509.94;5052929;28;20075;-62
2022/08/22 00:03:15;;;;;;;7.20;3.22;;;;;;;19.52;62.87;101503.75;5052591;28;20116;-62
2022/08/22 00:05:47;;;;;;;6.60;3.30;;;;;;;19.43;63.71;101514.63;5052860;28;20078;-62
2022/08/22 00:08:26;;;;;;;6.88;3.25;;;;;;;19.43;64.37;101516.44;5053466;28;20108;-62
2022/08/22 00:11:20;;;;;;;5.90;3.03;;;;;;;19.49;63.09;101509.19;5056894;28;20054;-63
2022/08/22 00:13:59;;;;;;;5.13;3.00;;;;;;;19.46;63.90;101511.91;5056952;28;20521;-63
2022/08/22 00:17:04;;;;;;;7.45;3.13;;;;;;;19.43;63.90;101511.06;5056850;28;20060;-62
2022/08/22 00:19:56;;;;;;;9.73;3.30;;;;;;;19.33;64.07;101512.13;5056571;28;20017;-63
2022/08/22 00:22:24;;;;;;;;;;;;;;;19.42;62.33;101512.00;5057264;28;20025;-62
2022/08/22 00:25:08;;;;;;;6.68;3.15;;;;;;;19.16;65.23;101515.03;5056377;28;19963;-63
2022/08/22 00:27:47;;;;;;;6.57;3.47;;;;;;;19.04;65.88;101513.41;5056605;28;20028;-62
2022/08/22 00:30:16;;;;;;;6.75;3.17;;;;;;;19.01;66.13;101511.69;5056960;28;20025;-63
2022/08/22 00:32:53;;;;;;;6.65;3.33;;;;;;;19.04;65.90;101510.75;5056561;28;20025;-62
2022/08/22 00:35:33;;;;;;;6.57;3.20;;;;;;;19.04;65.95;101513.41;5056667;28;20029;-63
2022/08/22 00:38:13;;;;;;;11.73;3.67;;;;;;;19.07;65.64;101516.06;5056286;28;20032;-62
2022/08/22 00:41:00;;;;;;;8.90;3.38;;;;;;;19.10;65.59;101509.75;5056167;28;20036;-63
2022/08/22 00:43:40;;;;;;;8.50;3.40;;;;;;;19.13;65.60;101513.28;5056292;28;20060;-63
2022/08/22 00:46:08;;;;;;;7.90;3.60;;;;;;;19.18;66.36;101514.09;5056028;28;20386;-62
2022/08/22 00:48:45;;;;;;;6.55;3.28;;;;;;;19.31;65.38;101512.13;5056100;28;20422;-62
2022/08/22 00:51:32;;;;;;;9.80;3.45;;;;;;;19.38;65.14;101508.47;5056008;28;20036;-62
2022/08/22 00:54:20;;;;;;;12.05;3.67;;;;;;;19.50;64.92;101520.81;5056232;28;20025;-62
2022/08/22 00:56:57;;;;;;;9.45;3.80;;;;;;;19.49;64.93;101514.56;5056209;28;20033;-62
2022/08/22 00:59:40;;;;;;;7.93;3.70;;;;;;;19.54;64.74;101517.16;5055947;28;20044;-63
2022/08/22 01:02:24;;;;;;;6.45;3.40;;;;;;;19.43;65.52;101519.13;5055971;28;20033;-63
2022/08/22 01:05:17;;;;;;;5.82;3.20;;;;;;;19.39;65.81;101520.06;5055822;28;20033;-62
2022/08/22 01:08:10;;;;;;;7.38;3.13;;;;;;;19.38;65.67;101521.84;5047278;28;20047;-62
2022/08/22 01:10:54;;;;;;;6.32;3.42;;;;;;;19.30;65.64;101514.84;5055601;28;20031;-62
2022/08/22 01:13:31;;;;;;;7.28;3.10;;;;;;;19.31;66.05;101517.50;5055698;28;20029;-63
2022/08/22 01:16:05;;;;;;;7.47;3.00;;;;;;;19.33;65.80;101514.81;5055427;28;20474;-62
2022/08/22 01:18:49;;;;;;;6.03;3.22;;;;;;;19.41;65.53;101513.78;5055683;28;20028;-62
2022/08/22 01:21:45;;;;;;;7.43;3.35;;;;;;;19.38;65.29;101511.13;5054223;28;20496;-63
2022/08/22 01:24:32;;;;;;;7.63;3.50;;;;;;;19.31;66.19;101514.81;5055288;28;20045;-62
2022/08/22 01:27:12;;;;;;;8.63;4.00;;;;;;;19.31;65.77;101512.13;5055520;28;20044;-62
2022/08/22 01:29:49;;;;;;;10.73;4.07;;;;;;;19.37;65.81;101516.53;5055292;28;20033;-62
2022/08/22 01:32:40;;;;;;;9.02;4.18;;;;;;;19.38;65.20;101512.94;5055412;28;20029;-63
2022/08/22 01:35:37;;;;;;;11.48;4.40;;;;;;;19.38;65.37;101512.94;5055306;28;20558;-62
2022/08/22 01:38:30;;;;;;;9.52;4.43;;;;;;;19.43;65.49;101509.28;5055245;28;20032;-62
2022/08/22 01:41:16;;;;;;;8.05;3.95;;;;;;;19.42;65.09;101509.31;5055182;28;20060;-63
2022/08/22 01:44:07;;;;;;;11.18;4.50;;;;;;;19.45;64.73;101511.94;5055109;28;20453;-62
2022/08/22 01:46:46;;;;;;;10.35;4.85;;;;;;;19.42;65.43;101503.94;5055106;28;20033;-62
2022/08/22 01:49:24;;;;;;;9.77;4.78;;;;;;;19.37;64.97;101506.69;5054944;28;20108;-62
2022/08/22 01:52:01;;;;;;;12.50;4.70;;;;;;;19.38;64.64;101499.53;5054982;28;20030;-62
2022/08/22 01:54:53;;;;;;;8.95;5.13;;;;;;;19.31;64.79;101501.41;5055232;28;20017;-63
2022/08/22 01:57:21;;;;;;;13.75;5.70;;;;;;;19.24;65.03;101497.06;5054961;28;20017;-62
2022/08/22 01:59:51;;;;;;;13.27;5.53;;;;;;;19.06;65.79;101495.53;5054962;28;20022;-62
2022/08/22 02:02:30;;;;;;;11.30;5.72;;;;;;;19.03;65.73;101500.94;5055105;28;20025;-62
2022/08/22 02:05:22;;;;;;;10.55;5.40;;;;;;;19.10;64.95;101507.06;5054782;28;20386;-63
2022/08/22 02:08:13;;;;;;;9.50;5.70;;;;;;;19.09;65.06;101508.88;5054922;28;20040;-61
2022/08/22 02:10:56;;;;;;;10.27;5.47;;;;;;;19.06;65.66;101506.25;5054473;28;20036;-61
2022/08/22 02:13:59;;;;;;;11.85;5.80;;;;;;;19.10;65.55;101502.63;5054638;28;20083;-63
2022/08/22 02:16:38;;;;;;;;;;;;;;;19.27;63.89;101503.28;5032519;28;20553;-62
2022/08/22 02:19:12;;;;;;;13.77;5.28;;;;;;;19.18;65.19;101499.81;5054584;28;19952;-62
2022/08/22 02:21:52;;;;;;;8.02;5.38;;;;;;;19.17;65.29;101503.41;5054471;28;20059;-62
2022/08/22 02:24:21;;;;;;;11.30;5.50;;;;;;;19.13;65.85;101501.69;5054323;28;20057;-63
2022/08/22 02:27:17;;;;;;;13.77;6.20;;;;;;;19.12;65.46;101499.91;5054180;28;20039;-62
2022/08/22 02:29:49;;;;;;;13.88;6.10;;;;;;;19.11;66.15;101492.81;5054205;28;20032;-63
2022/08/22 02:32:42;;;;;;;14.18;6.25;;;;;;;19.04;66.02;101497.34;5053983;28;20029;-62
2022/08/22 02:35:38;;;;;;;14.65;6.25;;;;;;;18.97;65.77;101493.88;5053952;28;20385;-63
2022/08/22 02:38:26;;;;;;;12.07;7.90;;;;;;;18.94;66.22;101498.38;5036242;28;20037;-62
2022/08/22 02:41:10;;;;;;;18.73;11.27;;;;;;;19.01;66.13;101487.56;5054009;28;20032;-62
2022/08/22 02:43:56;;;;;;;19.35;10.98;;;;;;;19.06;65.90;101491.94;5053876;28;20067;-62
2022/08/22 02:46:29;;;;;;;15.73;6.65;;;;;;;18.96;66.67;101493.88;5054179;28;20074;-62
2022/08/22 02:49:07;;;;;;;10.90;5.70;;;;;;;19.01;66.43;101487.56;5054053;28;20056;-64
2022/08/22 02:51:47;;;;;;;9.82;6.15;;;;;;;19.05;66.22;101495.53;5053784;28;20020;-63
2022/08/22 02:54:22;;;;;;;14.57;5.95;;;;;;;19.00;66.42;101496.50;5053870;28;20463;-63
2022/08/22 02:57:21;;;;;;;13.40;5.93;;;;;;;19.01;66.15;101490.25;5053784;28;20071;-63
2022/08/22 03:00:21;;;;;;;11.50;5.97;;;;;;;18.95;66.20;101501.03;5042653;28;20029;-63
2022/08/22 03:03:14;;;;;;;13.07;5.90;;;;;;;18.89;66.22;101498.44;5032724;28;20036;-63
2022/08/22 03:05:40;;;;;;;12.55;5.72;;;;;;;18.87;67.29;101489.53;5053618;28;20112;-63
2022/08/22 03:08:18;;;;;;;13.07;6.20;;;;;;;18.87;66.95;101484.19;5053753;28;20142;-61
2022/08/22 03:10:53;;;;;;;11.68;6.07;;;;;;;18.92;67.17;101486.78;5053182;28;20039;-62
2022/08/22 03:13:55;;;;;;;11.55;6.40;;;;;;;18.84;67.05;101489.56;5053662;28;20107;-62
2022/08/22 03:16:45;;;;;;;12.10;6.10;;;;;;;18.81;67.58;101489.63;5053644;28;20032;-63
2022/08/22 03:19:47;;;;;;;10.27;6.03;;;;;;;18.81;67.09;101494.09;5042326;28;20040;-62
2022/08/22 03:22:31;;;;;;;12.50;6.40;;;;;;;18.82;67.43;101486.03;5053322;28;20025;-63
2022/08/22 03:25:19;;;;;;;9.35;5.80;;;;;;;18.82;66.83;101483.34;5053049;28;20040;-63
2022/08/22 03:27:58;;;;;;;12.13;6.22;;;;;;;18.72;67.85;101482.59;5053165;28;20532;-62
2022/08/22 03:30:39;;;;;;;10.77;6.10;;;;;;;18.79;67.61;101477.16;5053362;28;20083;-63
2022/08/22 03:33:23;;;;;;;14.30;6.28;;;;;;;18.86;66.79;101468.16;5053244;28;20075;-63
2022/08/22 03:36:04;;;;;;;12.20;6.70;;;;;;;18.79;67.63;101469.13;5053001;28;20029;-63
2022/08/22 03:38:32;;;;;;;13.32;6.32;;;;;;;18.73;67.67;101473.66;5053162;28;20082;-62
2022/08/22 03:41:23;;;;;;;14.23;6.40;;;;;;;18.75;67.50;101466.47;5052732;28;20021;-61
2022/08/22 03:44:13;;;;;;;11.10;6.20;;;;;;;18.66;67.58;101461.22;5034246;28;20029;-63
2022/08/22 03:46:55;;;;;;;11.57;6.32;;;;;;;18.62;67.38;101467.50;5053017;28;20029;-62
2022/08/22 03:49:38;;;;;;;;;;;;;;;18.77;65.73;101463.81;5053421;28;20029;-62
2022/08/22 03:52:22;;;;;;;;;;;;;;;18.74;65.97;101470.06;5053487;28;19920;-63
2022/08/22 03:54:58;;;;;;;11.93;6.30;;;;;;;18.47;68.23;101457.88;5052876;28;19920;-62
2022/08/22 03:58:15;;;;;;;11.23;6.22;;;;;;;18.42;68.37;101464.22;5035050;28;20551;-62
2022/08/22 04:01:18;;;;;;;14.27;6.32;;;;;;;18.40;68.35;101463.31;5011787;28;20033;-63
2022/08/22 04:04:05;;;;;;;12.52;7.15;;;;;;;18.25;69.02;101462.59;5049711;28;20033;-61
2022/08/22 04:06:48;;;;;;;8.93;6.00;;;;;;;18.29;69.02;101463.47;5052990;28;20044;-62
2022/08/22 04:09:41;;;;;;;11.52;6.40;;;;;;;18.27;68.53;101458.09;5052542;28;20086;-63
2022/08/22 04:12:33;;;;;;;11.45;6.40;;;;;;;18.33;68.04;101465.19;5052778;28;20056;-62
2022/08/22 04:15:19;;;;;;;14.30;7.07;;;;;;;18.36;68.02;101466.94;5052639;28;20040;-63
2022/08/22 04:18:05;;;;;;;11.00;6.35;;;;;;;18.33;68.65;101467.88;5024237;28;20315;-61
2022/08/22 04:20:43;;;;;;;12.05;6.50;;;;;;;18.35;68.04;101467.84;5052575;28;20025;-63
2022/08/22 04:23:26;;;;;;;11.77;6.38;;;;;;;18.34;67.39;101471.44;5052282;28;20099;-62
2022/08/22 04:26:00;;;;;;;10.27;6.05;;;;;;;18.27;67.65;101478.63;5052715;28;20386;-62
2022/08/22 04:28:36;;;;;;;13.80;6.13;;;;;;;18.21;67.72;101468.88;5052441;28;20079;-63
2022/08/22 04:31:16;;;;;;;10.65;6.25;;;;;;;18.13;68.58;101477.91;5052806;28;20091;-62
2022/08/22 04:33:47;;;;;;;12.38;6.47;;;;;;;18.09;69.05;101478.84;5052367;28;20578;-63
2022/08/22 04:36:25;;;;;;;10.90;6.18;;;;;;;18.09;68.91;101476.16;5052104;28;20039;-63
2022/08/22 04:38:57;;;;;;;12.75;5.90;;;;;;;18.01;69.72;101481.56;5052448;28;20049;-61
2022/08/22 04:41:58;;;;;;;8.05;5.82;;;;;;;17.99;68.71;101462.88;5052400;28;20110;-62
2022/08/22 04:44:23;;;;;;;11.27;5.88;;;;;;;17.84;70.20;101467.47;5052418;28;20074;-62
2022/08/22 04:47:07;;;;;;;11.05;5.93;;;;;;;17.76;70.40;101472.88;5052284;28;20500;-62
2022/08/22 04:49:42;;;;;;;11.48;6.18;;;;;;;17.70;70.55;101475.59;5052242;28;20083;-62
2022/08/22 04:52:40;;;;;;;12.57;6.47;;;;;;;17.75;69.86;101480.03;5052455;28;20029;-63
2022/08/22 04:55:31;;;;;;;13.18;6.28;;;;;;;17.80;70.72;101482.66;5042306;28;20041;-62
2022/08/22 04:58:22;;;;;;;10.18;6.38;;;;;;;17.84;70.43;101489.75;5056068;28;20075;-62
2022/08/22 05:01:05;;;;;;;10.07;6.50;;;;;;;17.88;70.75;101494.16;5038206;28;20133;-64
2022/08/22 05:03:35;;;;;;;13.52;6.50;;;;;;;17.96;70.84;101499.47;5055919;28;20474;-62
2022/08/22 05:06:04;;;;;;;11.15;6.53;;;;;;;18.00;70.56;101495.84;5056006;28;20029;-62
2022/08/22 05:08:34;;;;;;;11.45;6.90;;;;;;;18.05;70.89;101496.69;5055654;28;20497;-63
2022/08/22 05:11:02;;;;;;;11.02;6.90;;;;;;;18.08;71.01;101498.47;5055582;28;20020;-65
2022/08/22 05:13:38;;;;;;;10.90;6.60;;;;;;;18.11;70.70;101491.28;5055782;28;20036;-63
2022/08/22 05:16:13;;;;;;;16.25;6.45;;;;;;;18.10;71.10;101507.34;5055748;28;20104;-62
2022/08/22 05:18:53;;;;;;;11.40;6.95;;;;;;;18.16;70.94;101496.59;5055719;28;20025;-63
2022/08/22 05:21:24;;;;;;;8.93;6.65;;;;;;;18.13;70.89;101497.50;5055576;28;20386;-63
2022/08/22 05:24:15;;;;;;;9.88;6.63;;;;;;;18.11;71.39;101493.94;5055327;28;20127;-64
2022/08/22 05:26:45;;;;;;;9.82;6.57;;;;;;;18.13;71.44;101500.19;5055355;28;20068;-62
2022/08/22 05:29:14;;;;;;;11.38;6.68;;;;;;;18.20;71.58;101498.31;5055559;28;20115;-63
2022/08/22 05:31:47;;;;;;;9.45;6.72;;;;;;;18.31;70.90;101496.41;5055453;28;20425;-63
2022/08/22 05:34:20;;;;;;;10.35;6.93;;;;;;;18.29;70.82;101497.38;5055403;28;20453;-63
2022/08/22 05:37:04;;;;;;;13.48;7.00;;;;;;;18.37;70.93;101500.81;5055261;28;20036;-62
2022/08/22 05:39:30;;;;;;;13.75;7.40;;;;;;;18.41;71.02;101511.47;5055393;28;20029;-64
2022/08/22 05:42:03;;;;;;;11.07;7.15;;;;;;;18.40;71.59;101506.13;5037428;28;20037;-63
2022/08/22 05:44:36;;;;;;;12.27;7.28;;;;;;;18.38;71.76;101506.16;5055365;28;20021;-62
2022/08/22 05:47:17;;;;;;;13.93;7.53;;;;;;;18.42;71.73;101517.72;5055000;28;20482;-63
2022/08/22 05:49:51;;;;;;;10.30;7.43;;;;;;;18.50;71.71;101510.50;5055142;28;20033;-63
2022/08/22 05:52:43;;;;;;;14.00;7.80;;;;;;;18.53;71.16;101515.81;5055116;28;20029;-62
2022/08/22 05:55:27;;;;;;;13.13;7.40;;;;;;;18.56;71.21;101515.78;5055032;28;20377;-62
2022/08/22 05:58:27;;;;;;;16.52;7.68;;;;;;;18.59;71.02;101513.06;5055021;28;20021;-63
2022/08/22 06:01:03;;;;;;;13.48;7.43;;;;;;;18.51;72.09;101505.13;5054974;28;20036;-64
2022/08/22 06:03:35;;;;;;;15.20;8.30;;;;;;;18.49;72.12;101503.34;5054921;28;20060;-63
2022/08/22 06:06:09;;;;;;;19.08;8.23;;;;;;;18.53;72.47;101508.66;5054113;28;20108;-67
2022/08/22 06:08:40;;;;;;;14.30;8.32;;;;;;;18.61;71.19;101507.69;5053474;28;20064;-62
2022/08/22 06:11:24;;;;;;;14.52;7.88;;;;;;;18.61;71.51;101511.25;5054516;28;20467;-63
2022/08/22 06:13:56;;;;;;;13.57;7.60;;;;;;;18.74;71.59;101507.56;5054649;28;20032;-62
2022/08/22 06:16:37;;;;;;;14.55;8.88;;;;;;;18.74;72.13;101510.22;5054658;28;20422;-63
2022/08/22 06:19:04;;;;;;;16.10;8.97;;;;;;;18.77;70.84;101514.66;5054694;28;20482;-62
2022/08/22 06:21:36;;;;;;;17.88;9.70;;;;;;;18.77;71.39;101509.31;5054635;28;20108;-63
2022/08/22 06:24:07;;;;;;;18.40;9.27;;;;;;;18.89;71.16;101517.19;5054428;28;20080;-63
2022/08/22 06:26:38;;;;;;;15.20;9.30;;;;;;;18.91;71.53;101518.03;5036412;28;20033;-63
2022/08/22 06:29:07;;;;;;;15.43;9.90;;;;;;;18.98;71.05;101518.88;5054288;28;20036;-62
2022/08/22 06:31:38;;;;;;;15.75;9.98;;;;;;;19.03;71.80;101519.69;5054327;28;20474;-63
2022/08/22 06:34:29;;;;;;;20.83;10.60;;;;;;;19.01;71.62;101526.84;5054500;28;20114;-62
2022/08/22 06:36:57;;;;;;;18.17;10.02;;;;;;;19.06;71.45;101529.47;5039930;28;20036;-63
2022/08/22 06:39:29;;;;;;;16.65;9.95;;;;;;;19.08;71.44;101519.63;5054086;28;20024;-62
2022/08/22 06:42:00;;;;;;;17.17;10.52;;;;;;;19.07;70.93;101521.41;5053900;28;20024;-64
2022/08/22 06:44:48;;;;;;;17.98;10.02;;;;;;;19.11;71.36;101531.19;5054201;28;20032;-64
2022/08/22 06:47:19;;;;;;;16.75;10.20;;;;;;;19.13;71.84;101523.13;5053667;28;20103;-62
2022/08/22 06:49:45;;;;;;;16.45;10.07;;;;;;;19.24;71.69;101526.53;5053737;28;20471;-62
2022/08/22 06:52:23;;;;;;;14.50;9.57;;;;;;;19.15;72.13;101524.00;5053588;28;20028;-63
2022/08/22 06:54:59;;;;;;;16.27;10.50;;;;;;;19.27;72.08;101532.75;5053710;28;20108;-62
2022/08/22 06:57:56;;;;;;;13.70;9.52;;;;;;;19.34;72.02;101541.56;5053903;28;20032;-62
2022/08/22 07:00:23;;;;;;;17.92;9.75;;;;;;;19.37;71.44;101541.53;5030732;28;20041;-63
2022/08/22 07:02:57;;;;;;;17.10;9.65;;;;;;;19.44;71.62;101536.97;5053744;28;20070;-63
2022/08/22 07:05:28;;;;;;;15.88;9.65;;;;;;;19.51;71.42;101544.00;5053678;28;20021;-63
2022/08/22 07:07:55;;;;;;;14.52;10.23;;;;;;;19.52;71.88;101546.66;5035618;28;20196;-64
2022/08/22 07:10:23;;;;;;;15.30;9.82;;;;;;;19.56;71.39;101552.88;5053130;28;20108;-63
2022/08/22 07:12:52;;;;;;;15.00;9.32;;;;;;;19.58;70.83;101545.69;5053371;28;20021;-63
2022/08/22 07:15:36;;;;;;;15.85;9.65;;;;;;;19.64;70.99;101542.94;5053394;28;20386;-64
2022/08/22 07:18:23;;;;;;;14.60;9.20;;;;;;;19.68;70.89;101546.47;5053553;28;20032;-63
2022/08/22 07:20:53;;;;;;;16.92;9.38;;;;;;;19.65;70.22;101546.50;5053138;28;20560;-63
2022/08/22 07:23:39;;;;;;;20.23;9.65;;;;;;;19.63;70.38;101548.34;5053050;28;20502;-64
2022/08/22 07:26:42;;;;;;;16.35;9.80;;;;;;;19.70;70.10;101548.22;5053573;28;20032;-63
2022/08/22 07:29:36;;;;;;;18.52;9.63;;;;;;;19.73;70.45;101548.16;5053144;28;20112;-63
2022/08/22 07:32:11;;;;;;;17.33;9.30;;;;;;;19.83;70.70;101545.31;5053542;28;20044;-63
2022/08/22 07:34:36;;;;;;;15.45;9.32;;;;;;;19.89;70.36;101545.25;5053084;28;20112;-62
2022/08/22 07:37:08;;;;;;;18.08;9.77;;;;;;;20.00;70.24;101544.16;5053240;28;20117;-62
2022/08/22 07:39:39;;;;;;;19.13;9.75;;;;;;;20.15;70.60;101544.78;5052790;28;20086;-63
2022/08/22 07:42:11;;;;;;;16.20;9.90;;;;;;;20.30;70.30;101533.78;5053284;28;20025;-62
2022/08/22 07:44:42;;;;;;;14.05;9.77;;;;;;;20.41;68.71;101528.22;5053143;28;20029;-65
2022/08/22 07:47:16;;;;;;;19.02;10.25;;;;;;;20.63;68.14;101526.00;5052931;28;20478;-63
2022/08/22 07:49:45;;;;;;;14.57;10.07;;;;;;;20.93;67.29;101540.63;5035018;28;20029;-63
2022/08/22 07:52:12;;;;;;;14.73;9.45;;;;;;;21.26;67.14;101533.63;5052611;28;20035;-62
2022/08/22 07:54:52;;;;;;;16.98;9.80;;;;;;;21.50;66.23;101525.03;5052973;28;20029;-63
2022/08/22 07:57:38;;;;;;;16.38;9.88;;;;;;;21.93;65.91;101518.59;5052855;28;20035;-63
2022/08/22 08:00:12;;;;;;;19.05;10.32;;;;;;;22.54;63.84;101521.47;5052729;28;20092;-63
2022/08/22 08:03:07;;;;;;;17.85;10.25;;;;;;;23.17;63.25;101528.63;5052730;28;20025;-63
2022/08/22 08:05:36;;;;;;;17.33;9.52;;;;;;;23.63;58.81;101519.06;5039932;28;20040;-64
2022/08/22 08:08:11;;;;;;;17.20;10.55;;;;;;;24.07;59.33;101521.22;5034933;28;20025;-63
2022/08/22 08:10:41;;;;;;;17.10;10.20;;;;;;;24.43;57.13;101514.56;5052655;28;20021;-63
2022/08/22 08:13:13;;;;;;;18.27;10.35;;;;;;;24.72;56.59;101516.22;5052922;28;20082;-63
2022/08/22 08:15:42;;;;;;;17.05;10.07;;;;;;;25.04;55.29;101511.38;5052786;28;20094;-62
2022/08/22 08:18:13;;;;;;;17.92;10.25;;;;;;;25.44;54.12;101505.31;5052622;28;20375;-63
2022/08/22 08:20:38;;;;;;;18.20;10.32;;;;;;;25.59;54.14;101502.91;5052674;28;20029;-62
2022/08/22 08:23:08;;;;;;;20.13;9.52;;;;;;;25.88;52.30;101502.59;5052458;28;20033;-64
2022/08/22 08:25:51;;;;;;;15.85;9.43;;;;;;;26.25;51.94;101494.69;5052873;28;20418;-63
2022/08/22 08:28:35;;;;;;;;;;;;;;;26.56;53.50;101491.53;5052959;28;20040;-64
2022/08/22 08:31:16;;;;;;;18.00;10.15;;;;;;;26.88;51.65;101490.91;5056383;28;19970;-62
2022/08/22 08:33:46;;;;;;;17.45;8.93;;;;;;;27.05;49.29;101492.81;5056458;28;20079;-64
2022/08/22 08:36:31;;;;;;;15.80;9.00;;;;;;;27.00;50.27;101500.31;5056445;28;20047;-63
2022/08/22 08:39:27;;;;;;;22.00;8.10;;;;;;;26.99;48.06;101498.56;5056367;28;20029;-63
2022/08/22 08:42:20;;;;;;;13.93;8.35;;;;;;;26.67;50.30;101498.22;5056408;28;20110;-63
2022/08/22 08:44:48;;;;;;;14.57;7.88;;;;;;;26.42;49.26;101502.94;5055333;28;20037;-63
2022/08/22 08:47:30;;;;;;;14.00;8.35;;;;;;;26.31;49.66;101498.03;5056362;28;20029;-62
2022/08/22 08:50:24;;;;;;;16.83;8.73;;;;;;;26.28;50.43;101495.44;5056096;28;20049;-62
2022/08/22 08:52:57;;;;;;;18.13;8.32;;;;;;;26.18;48.93;101500.41;5056102;28;20275;-62
2022/08/22 08:55:46;;;;;;;15.38;8.05;;;;;;;26.28;50.26;101498.16;5056263;28;20037;-64
2022/08/22 08:58:30;;;;;;;15.32;8.13;;;;;;;26.24;48.91;101493.81;5056324;28;20032;-64
2022/08/22 09:01:20;;;;;;;15.93;8.52;;;;;;;26.14;49.88;101496.06;5055868;28;20039;-64
2022/08/22 09:04:16;;;;;;;16.75;8.82;;;;;;;26.25;50.26;101484.72;5056302;28;20385;-62
2022/08/22 09:06:47;;;;;;;16.40;7.80;;;;;;;26.24;48.80;101480.28;5055972;28;20057;-63
2022/08/22 09:09:43;;;;;;;18.20;8.43;;;;;;;26.23;48.80;101482.09;5055703;28;20481;-62
2022/08/22 09:12:46;;;;;;;15.45;8.38;;;;;;;26.28;49.60;101486.44;5055946;28;20025;-63
2022/08/22 09:15:30;;;;;;;13.90;7.43;;;;;;;26.13;48.75;101480.75;5055663;28;20441;-63
2022/08/22 09:18:02;;;;;;;17.42;7.40;;;;;;;26.13;48.29;101480.75;5055791;28;20136;-65
2022/08/22 09:20:45;;;;;;;15.65;8.00;;;;;;;26.04;48.68;101478.47;5055668;28;20028;-63
2022/08/22 09:23:36;;;;;;;17.17;7.75;;;;;;;26.00;49.32;101484.09;5055444;28;20052;-63
2022/08/22 09:26:05;;;;;;;16.30;6.20;;;;;;;25.86;46.19;101479.22;5055586;28;20083;-63
2022/08/22 09:28:38;;;;;;;14.82;6.28;;;;;;;25.75;48.10;101470.69;5055320;28;20036;-64
2022/08/22 09:31:22;;;;;;;13.63;5.65;;;;;;;25.74;46.92;101480.63;5055568;28;20029;-63
2022/08/22 09:34:12;;;;;;;11.73;4.88;;;;;;;25.67;45.23;101481.81;5055506;28;20025;-63
2022/08/22 09:36:56;;;;;;;13.88;4.60;;;;;;;25.44;43.84;101477.38;5055282;28;20033;-63
2022/08/22 09:39:36;;;;;;;13.25;5.30;;;;;;;25.36;45.22;101490.34;5055272;28;20057;-64
2022/08/22 09:42:20;;;;;;;10.85;4.70;;;;;;;25.31;44.58;101481.50;5054063;28;20055;-64
2022/08/22 09:45:07;;;;;;;12.32;4.53;;;;;;;25.33;44.98;101476.94;5055059;28;20029;-62
2022/08/22 09:47:38;;;;;;;12.68;5.50;;;;;;;25.17;45.43;101473.94;5055152;28;20045;-64
2022/08/22 09:50:16;;;;;;;13.17;5.60;;;;;;;25.17;46.06;101485.66;5055101;28;20033;-63
2022/08/22 09:53:10;;;;;;;10.55;5.10;;;;;;;25.15;46.76;101471.31;5055272;28;20660;-62
2022/08/22 09:55:53;;;;;;;11.10;5.32;;;;;;;25.18;46.79;101475.69;5054986;28;20024;-64
2022/08/22 09:58:48;;;;;;;13.10;5.60;;;;;;;25.22;46.92;101472.84;5055006;28;20025;-62
2022/08/22 10:01:17;;;;;;;11.75;5.30;;;;;;;25.34;46.79;101473.28;5048301;28;20037;-64
2022/08/22 10:03:45;;;;;;;14.85;5.35;;;;;;;25.42;46.94;101468.44;5054844;28;20025;-63
2022/08/22 10:06:19;;;;;;;14.05;5.47;;;;;;;25.56;46.22;101470.56;5054934;28;20025;-64
2022/08/22 10:09:20;;;;;;;14.45;5.60;;;;;;;25.79;45.80;101470.50;5054814;28;20029;-62
2022/08/22 10:11:52;;;;;;;13.30;5.75;;;;;;;25.93;46.08;101464.50;5053763;28;20029;-64
2022/08/22 10:14:24;;;;;;;12.95;4.80;;;;;;;26.10;45.11;101469.19;5054968;28;20074;-64
2022/08/22 10:17:05;;;;;;;10.57;5.05;;;;;;;26.21;45.41;101454.22;5054676;28;20082;-63
2022/08/22 10:19:44;;;;;;;14.77;5.22;;;;;;;26.28;45.04;101471.06;5054597;28;20064;-63
2022/08/22 10:22:29;;;;;;;14.98;5.13;;;;;;;26.46;46.06;101455.81;5054400;28;20029;-63
2022/08/22 10:25:34;;;;;;;14.45;5.13;;;;;;;26.67;44.68;101457.53;5054189;28;20064;-63
2022/08/22 10:28:13;;;;;;;14.75;5.20;;;;;;;26.74;42.25;101450.00;5054256;28;20394;-63
2022/08/22 10:30:47;;;;;;;13.55;5.00;;;;;;;26.93;42.96;101445.47;5054354;28;20028;-64
2022/08/22 10:33:41;;;;;;;10.13;4.68;;;;;;;27.16;42.77;101447.09;5054302;28;20394;-63
2022/08/22 10:36:14;;;;;;;15.68;4.82;;;;;;;27.55;42.43;101445.19;5046936;28;20068;-63
2022/08/22 10:38:53;;;;;;;8.50;4.20;;;;;;;27.80;42.06;101450.28;5054215;28;20131;-62
2022/08/22 10:41:18;;;;;;;11.80;4.25;;;;;;;27.91;39.51;101442.44;5053876;28;20086;-63
2022/08/22 10:43:54;;;;;;;13.20;4.00;;;;;;;28.11;40.02;101449.56;5054209;28;20029;-63
2022/08/22 10:46:37;;;;;;;11.82;3.88;;;;;;;28.14;39.22;101442.13;5054051;28;20017;-64
2022/08/22 10:49:29;;;;;;;9.32;4.20;;;;;;;28.14;40.11;101438.53;5036128;28;20033;-65
2022/08/22 10:52:02;;;;;;;11.75;3.90;;;;;;;28.35;37.69;101436.47;5053658;28;20482;-63
2022/08/22 10:54:37;;;;;;;9.77;3.53;;;;;;;28.65;36.91;101431.22;5053763;28;20028;-64
2022/08/22 10:57:27;;;;;;;10.70;4.22;;;;;;;29.03;37.20;101425.50;5053902;28;20035;-63
2022/08/22 11:00:01;;;;;;;14.18;4.28;;;;;;;29.50;36.50;101414.56;5053645;28;20024;-65
2022/08/22 11:02:47;;;;;;;11.80;3.65;;;;;;;30.09;36.98;101420.09;5054062;28;20036;-64
2022/08/22 11:05:37;;;;;;;10.90;3.78;;;;;;;30.41;35.84;101415.41;5054112;28;20032;-63
2022/08/22 11:08:15;;;;;;;11.73;3.47;;;;;;;30.29;34.81;101419.78;5053600;28;20425;-65
2022/08/22 11:11:05;;;;;;;10.98;4.00;;;;;;;30.11;33.09;101423.63;5053587;28;20071;-63
2022/08/22 11:13:40;;;;;;;9.43;3.30;;;;;;;29.79;32.92;101425.59;5053507;28;20033;-64
2022/08/22 11:16:26;;;;;;;10.43;3.40;;;;;;;29.70;34.63;101418.84;5053483;28;20040;-63
2022/08/22 11:19:24;;;;;;;8.52;3.30;;;;;;;29.77;33.55;101422.09;5053521;28;20021;-64
2022/08/22 11:21:58;;;;;;;7.40;3.15;;;;;;;29.59;32.59;101421.31;5051321;28;20033;-63
2022/08/22 11:24:30;;;;;;;10.15;3.28;;;;;;;29.48;33.69;101421.06;5053099;28;20064;-62
2022/08/22 11:27:10;;;;;;;9.93;3.08;;;;;;;29.51;34.53;101413.59;5053308;28;20489;-64
2022/08/22 11:30:02;;;;;;;7.43;2.80;;;;;;;29.74;35.27;101422.28;5053222;28;20033;-64
2022/08/22 11:32:57;;;;;;;8.95;2.92;;;;;;;29.49;34.12;101417.38;5053366;28;20025;-63
2022/08/22 11:35:30;;;;;;;8.95;3.28;;;;;;;29.52;32.47;101417.22;5053144;28;20151;-64
2022/08/22 11:38:04;;;;;;;10.90;3.17;;;;;;;29.62;32.78;101410.25;5053150;28;20037;-64
2022/08/22 11:40:43;;;;;;;8.68;3.15;;;;;;;29.64;34.49;101411.94;5052963;28;20024;-64
2022/08/22 11:43:36;;;;;;;8.30;2.88;;;;;;;29.65;33.39;101401.91;5052887;28;20056;-64
2022/08/22 11:46:26;;;;;;;9.27;3.00;;;;;;;29.65;33.04;101401.91;5053028;28;20103;-63
2022/08/22 11:49:00;;;;;;;11.30;2.78;;;;;;;29.51;31.70;101402.72;5052925;28;20025;-64
2022/08/22 11:51:43;;;;;;;7.10;2.60;;;;;;;29.50;31.06;101395.50;5053007;28;20025;-63
2022/08/22 11:54:30;;;;;;;8.55;2.88;;;;;;;29.47;31.93;101395.69;5053166;28;20571;-63
2022/08/22 11:57:07;;;;;;;7.82;2.75;;;;;;;29.65;32.60;101399.19;5052874;28;20098;-64
2022/08/22 11:59:41;;;;;;;10.18;2.90;;;;;;;29.66;32.47;101398.22;5052884;28;20017;-63
2022/08/22 12:02:20;;;;;;;9.43;2.95;;;;;;;29.63;32.46;101399.25;5052798;28;20029;-63
2022/08/22 12:04:57;;;;;;;8.82;2.78;;;;;;;29.73;32.00;101396.88;5052330;28;20029;-63
2022/08/22 12:07:38;;;;;;;10.60;3.28;;;;;;;29.75;31.97;101403.09;5053062;28;20021;-64
2022/08/22 12:10:14;;;;;;;9.82;2.92;;;;;;;29.69;31.74;101398.91;5052586;28;20081;-64
2022/08/22 12:13:02;;;;;;;9.93;2.92;;;;;;;29.64;31.75;101392.88;5052570;28;20100;-64
2022/08/22 12:16:06;;;;;;;10.55;3.15;;;;;;;29.60;32.99;101393.16;5052802;28;20083;-64
2022/08/22 12:18:53;;;;;;;8.15;2.83;;;;;;;29.48;32.20;101394.72;4998485;28;20046;-64
2022/08/22 12:21:19;;;;;;;10.35;3.17;;;;;;;29.28;33.27;101393.16;5052607;28;20204;-63